sensor_id;sensor_type;location;lat;lon;timestamp;P1;durP1;ratioP1;P2;durP2;ratioP2
1140;SDS011;559;48.628;8.924;2023-04-01T00:01:05;141.70;;;133.80;;
1140;SDS011;559;48.628;8.924;2023-04-01T00:03:33;144.45;;;136.65;;
1140;SDS011;559;48.628;8.924;2023-04-01T00:06:00;154.77;;;146.77;;
1140;SDS011;559;48.628;8.924;2023-04-01T00:08:28;159.82;;;151.70;;
1140;SDS011;559;48.628;8.924;2023-04-01T00:10:55;158.13;;;149.93;;
1140;SDS011;559;48.628;8.924;2023-04-01T00:13:22;155.55;;;147.20;;
1140;SDS011;559;48.628;8.924;2023-04-01T00:15:50;157.52;;;149.38;;
1140;SDS011;559;48.628;8.924;2023-04-01T00:18:17;158.43;;;150.10;;
1140;SDS011;559;48.628;8.924;2023-04-01T00:20:44;159.73;;;151.70;;
1140;SDS011;559;48.628;8.924;2023-04-01T00:23:11;152.57;;;144.68;;
1140;SDS011;559;48.628;8.924;2023-04-01T00:25:39;151.60;;;143.60;;
1140;SDS011;559;48.628;8.924;2023-04-01T00:28:06;150.70;;;142.90;;
1140;SDS011;559;48.628;8.924;2023-04-01T00:30:32;148.05;;;140.15;;
1140;SDS011;559;48.628;8.924;2023-04-01T00:32:59;153.57;;;145.68;;
1140;SDS011;559;48.628;8.924;2023-04-01T00:35:27;151.05;;;143.15;;
1140;SDS011;559;48.628;8.924;2023-04-01T00:37:54;149.93;;;142.13;;
1140;SDS011;559;48.628;8.924;2023-04-01T00:40:25;150.15;;;142.27;;
1140;SDS011;559;48.628;8.924;2023-04-01T00:42:54;158.60;;;150.32;;
1140;SDS011;559;48.628;8.924;2023-04-01T00:45:23;155.95;;;148.05;;
1140;SDS011;559;48.628;8.924;2023-04-01T00:47:53;154.70;;;146.27;;
1140;SDS011;559;48.628;8.924;2023-04-01T00:50:21;159.52;;;151.52;;
1140;SDS011;559;48.628;8.924;2023-04-01T00:52:49;156.38;;;148.48;;
1140;SDS011;559;48.628;8.924;2023-04-01T00:55:16;155.45;;;147.52;;
1140;SDS011;559;48.628;8.924;2023-04-01T00:57:44;158.57;;;150.48;;
1140;SDS011;559;48.628;8.924;2023-04-01T01:00:13;152.90;;;145.20;;
1140;SDS011;559;48.628;8.924;2023-04-01T01:02:41;155.05;;;147.25;;
1140;SDS011;559;48.628;8.924;2023-04-01T01:05:08;160.57;;;152.68;;
1140;SDS011;559;48.628;8.924;2023-04-01T01:07:38;163.90;;;155.75;;
1140;SDS011;559;48.628;8.924;2023-04-01T01:10:11;155.93;;;147.82;;
1140;SDS011;559;48.628;8.924;2023-04-01T01:12:44;157.60;;;149.40;;
1140;SDS011;559;48.628;8.924;2023-04-01T01:15:15;151.32;;;143.45;;
1140;SDS011;559;48.628;8.924;2023-04-01T01:17:48;162.38;;;153.90;;
1140;SDS011;559;48.628;8.924;2023-04-01T01:20:21;156.85;;;148.75;;
1140;SDS011;559;48.628;8.924;2023-04-01T01:25:48;147.60;;;139.88;;
1140;SDS011;559;48.628;8.924;2023-04-01T01:28:26;149.25;;;141.45;;
1140;SDS011;559;48.628;8.924;2023-04-01T01:31:01;143.88;;;136.38;;
1140;SDS011;559;48.628;8.924;2023-04-01T01:33:33;155.55;;;147.80;;
1140;SDS011;559;48.628;8.924;2023-04-01T01:36:06;153.88;;;145.98;;
1140;SDS011;559;48.628;8.924;2023-04-01T01:38:37;147.70;;;140.20;;
1140;SDS011;559;48.628;8.924;2023-04-01T01:41:04;149.00;;;141.40;;
1140;SDS011;559;48.628;8.924;2023-04-01T01:43:33;141.85;;;134.38;;
1140;SDS011;559;48.628;8.924;2023-04-01T01:46:05;151.20;;;143.50;;
1140;SDS011;559;48.628;8.924;2023-04-01T01:48:34;148.50;;;140.80;;
1140;SDS011;559;48.628;8.924;2023-04-01T01:51:02;149.13;;;141.45;;
1140;SDS011;559;48.628;8.924;2023-04-01T01:53:30;142.82;;;135.43;;
1140;SDS011;559;48.628;8.924;2023-04-01T01:55:57;143.63;;;136.23;;
1140;SDS011;559;48.628;8.924;2023-04-01T01:58:25;144.40;;;137.00;;
1140;SDS011;559;48.628;8.924;2023-04-01T02:00:54;140.68;;;133.48;;
1140;SDS011;559;48.628;8.924;2023-04-01T02:03:23;137.73;;;130.52;;
1140;SDS011;559;48.628;8.924;2023-04-01T02:05:51;143.85;;;136.55;;
1140;SDS011;559;48.628;8.924;2023-04-01T02:08:20;144.93;;;137.63;;
1140;SDS011;559;48.628;8.924;2023-04-01T02:10:51;142.88;;;135.57;;
1140;SDS011;559;48.628;8.924;2023-04-01T02:13:23;140.68;;;133.48;;
1140;SDS011;559;48.628;8.924;2023-04-01T02:15:52;144.18;;;136.88;;
1140;SDS011;559;48.628;8.924;2023-04-01T02:18:22;145.63;;;138.23;;
1140;SDS011;559;48.628;8.924;2023-04-01T02:20:49;140.38;;;133.25;;
1140;SDS011;559;48.628;8.924;2023-04-01T02:23:18;146.75;;;139.45;;
1140;SDS011;559;48.628;8.924;2023-04-01T02:25:46;146.32;;;139.02;;
1140;SDS011;559;48.628;8.924;2023-04-01T02:28:18;148.23;;;140.88;;
1140;SDS011;559;48.628;8.924;2023-04-01T02:30:45;146.60;;;139.43;;
1140;SDS011;559;48.628;8.924;2023-04-01T02:33:13;144.13;;;136.93;;
1140;SDS011;559;48.628;8.924;2023-04-01T02:35:39;137.68;;;130.68;;
1140;SDS011;559;48.628;8.924;2023-04-01T02:38:07;143.02;;;135.88;;
1140;SDS011;559;48.628;8.924;2023-04-01T02:40:41;146.75;;;139.57;;
1140;SDS011;559;48.628;8.924;2023-04-01T02:43:11;144.13;;;136.90;;
1140;SDS011;559;48.628;8.924;2023-04-01T02:45:42;146.77;;;139.68;;
1140;SDS011;559;48.628;8.924;2023-04-01T02:48:09;145.65;;;138.48;;
1140;SDS011;559;48.628;8.924;2023-04-01T02:50:35;150.88;;;143.63;;
1140;SDS011;559;48.628;8.924;2023-04-01T02:53:03;147.48;;;140.27;;
1140;SDS011;559;48.628;8.924;2023-04-01T02:55:31;141.63;;;134.63;;
1140;SDS011;559;48.628;8.924;2023-04-01T02:57:58;139.90;;;132.85;;
1140;SDS011;559;48.628;8.924;2023-04-01T03:00:29;142.70;;;135.70;;
1140;SDS011;559;48.628;8.924;2023-04-01T03:02:55;146.18;;;139.07;;
1140;SDS011;559;48.628;8.924;2023-04-01T03:05:22;145.82;;;138.82;;
1140;SDS011;559;48.628;8.924;2023-04-01T03:07:49;147.85;;;140.55;;
1140;SDS011;559;48.628;8.924;2023-04-01T03:10:16;147.88;;;140.73;;
1140;SDS011;559;48.628;8.924;2023-04-01T03:12:42;142.38;;;135.10;;
1140;SDS011;559;48.628;8.924;2023-04-01T03:15:09;143.68;;;136.68;;
1140;SDS011;559;48.628;8.924;2023-04-01T03:17:38;146.35;;;139.15;;
1140;SDS011;559;48.628;8.924;2023-04-01T03:20:05;146.90;;;139.70;;
1140;SDS011;559;48.628;8.924;2023-04-01T03:22:33;148.18;;;141.07;;
1140;SDS011;559;48.628;8.924;2023-04-01T03:25:00;150.02;;;142.88;;
1140;SDS011;559;48.628;8.924;2023-04-01T03:27:27;151.75;;;144.35;;
1140;SDS011;559;48.628;8.924;2023-04-01T03:29:54;142.50;;;135.40;;
1140;SDS011;559;48.628;8.924;2023-04-01T03:32:21;136.95;;;130.05;;
1140;SDS011;559;48.628;8.924;2023-04-01T03:34:49;147.10;;;140.10;;
1140;SDS011;559;48.628;8.924;2023-04-01T03:37:17;141.23;;;134.32;;
1140;SDS011;559;48.628;8.924;2023-04-01T03:39:46;148.55;;;141.38;;
1140;SDS011;559;48.628;8.924;2023-04-01T03:42:12;139.93;;;133.05;;
1140;SDS011;559;48.628;8.924;2023-04-01T03:44:39;140.15;;;133.35;;
1140;SDS011;559;48.628;8.924;2023-04-01T03:47:06;141.48;;;134.45;;
1140;SDS011;559;48.628;8.924;2023-04-01T03:49:34;142.07;;;135.18;;
1140;SDS011;559;48.628;8.924;2023-04-01T03:52:03;144.57;;;137.68;;
1140;SDS011;559;48.628;8.924;2023-04-01T03:54:30;145.98;;;139.07;;
1140;SDS011;559;48.628;8.924;2023-04-01T03:56:57;141.57;;;134.77;;
1140;SDS011;559;48.628;8.924;2023-04-01T03:59:23;146.23;;;139.32;;
1140;SDS011;559;48.628;8.924;2023-04-01T04:01:50;155.00;;;147.98;;
1140;SDS011;559;48.628;8.924;2023-04-01T04:04:16;144.95;;;138.25;;
1140;SDS011;559;48.628;8.924;2023-04-01T04:06:43;149.52;;;142.70;;
1140;SDS011;559;48.628;8.924;2023-04-01T04:09:12;149.00;;;142.10;;
1140;SDS011;559;48.628;8.924;2023-04-01T04:11:40;152.73;;;145.52;;
1140;SDS011;559;48.628;8.924;2023-04-01T04:14:08;154.40;;;147.30;;
1140;SDS011;559;48.628;8.924;2023-04-01T04:16:34;151.80;;;144.80;;
1140;SDS011;559;48.628;8.924;2023-04-01T04:19:03;161.43;;;153.82;;
1140;SDS011;559;48.628;8.924;2023-04-01T04:21:29;158.50;;;151.02;;
1140;SDS011;559;48.628;8.924;2023-04-01T04:23:56;154.32;;;147.00;;
1140;SDS011;559;48.628;8.924;2023-04-01T04:26:26;149.60;;;142.10;;
1140;SDS011;559;48.628;8.924;2023-04-01T04:28:53;153.90;;;146.50;;
1140;SDS011;559;48.628;8.924;2023-04-01T04:31:22;159.07;;;151.52;;
1140;SDS011;559;48.628;8.924;2023-04-01T04:33:49;163.52;;;155.70;;
1140;SDS011;559;48.628;8.924;2023-04-01T04:36:16;156.75;;;149.05;;
1140;SDS011;559;48.628;8.924;2023-04-01T04:38:45;161.18;;;153.35;;
1140;SDS011;559;48.628;8.924;2023-04-01T04:41:12;162.73;;;154.93;;
1140;SDS011;559;48.628;8.924;2023-04-01T04:43:41;163.40;;;155.60;;
1140;SDS011;559;48.628;8.924;2023-04-01T04:46:07;157.90;;;150.10;;
1140;SDS011;559;48.628;8.924;2023-04-01T04:48:34;161.95;;;154.25;;
1140;SDS011;559;48.628;8.924;2023-04-01T04:51:01;165.07;;;156.85;;
1140;SDS011;559;48.628;8.924;2023-04-01T04:53:28;160.52;;;153.02;;
1140;SDS011;559;48.628;8.924;2023-04-01T04:55:55;164.20;;;156.55;;
1140;SDS011;559;48.628;8.924;2023-04-01T04:58:21;154.57;;;147.07;;
1140;SDS011;559;48.628;8.924;2023-04-01T05:00:49;161.10;;;153.40;;
1140;SDS011;559;48.628;8.924;2023-04-01T05:03:16;165.10;;;157.23;;
1140;SDS011;559;48.628;8.924;2023-04-01T05:05:48;164.27;;;156.57;;
1140;SDS011;559;48.628;8.924;2023-04-01T05:08:15;167.30;;;159.27;;
1140;SDS011;559;48.628;8.924;2023-04-01T05:10:42;162.02;;;154.52;;
1140;SDS011;559;48.628;8.924;2023-04-01T05:13:09;163.82;;;156.25;;
1140;SDS011;559;48.628;8.924;2023-04-01T05:15:36;152.88;;;145.38;;
1140;SDS011;559;48.628;8.924;2023-04-01T05:18:04;151.52;;;144.23;;
1140;SDS011;559;48.628;8.924;2023-04-01T05:20:31;152.52;;;145.02;;
1140;SDS011;559;48.628;8.924;2023-04-01T05:22:58;152.27;;;145.02;;
1140;SDS011;559;48.628;8.924;2023-04-01T05:25:25;141.05;;;134.05;;
1140;SDS011;559;48.628;8.924;2023-04-01T05:27:52;147.82;;;140.82;;
1140;SDS011;559;48.628;8.924;2023-04-01T05:30:19;153.23;;;146.02;;
1140;SDS011;559;48.628;8.924;2023-04-01T05:32:45;146.10;;;139.10;;
1140;SDS011;559;48.628;8.924;2023-04-01T05:35:15;145.73;;;138.60;;
1140;SDS011;559;48.628;8.924;2023-04-01T05:37:42;147.77;;;140.85;;
1140;SDS011;559;48.628;8.924;2023-04-01T05:40:09;139.95;;;133.25;;
1140;SDS011;559;48.628;8.924;2023-04-01T05:42:37;130.45;;;123.93;;
1140;SDS011;559;48.628;8.924;2023-04-01T05:45:05;137.40;;;130.90;;
1140;SDS011;559;48.628;8.924;2023-04-01T05:47:34;129.90;;;123.38;;
1140;SDS011;559;48.628;8.924;2023-04-01T05:50:01;126.13;;;119.93;;
1140;SDS011;559;48.628;8.924;2023-04-01T05:52:33;130.30;;;124.07;;
1140;SDS011;559;48.628;8.924;2023-04-01T05:54:59;128.00;;;121.90;;
1140;SDS011;559;48.628;8.924;2023-04-01T05:57:27;132.40;;;126.20;;
1140;SDS011;559;48.628;8.924;2023-04-01T05:59:53;132.45;;;126.28;;
1140;SDS011;559;48.628;8.924;2023-04-01T06:02:20;131.57;;;125.32;;
1140;SDS011;559;48.628;8.924;2023-04-01T06:04:48;129.40;;;123.50;;
1140;SDS011;559;48.628;8.924;2023-04-01T06:07:18;126.78;;;120.68;;
1140;SDS011;559;48.628;8.924;2023-04-01T06:09:50;124.82;;;118.93;;
1140;SDS011;559;48.628;8.924;2023-04-01T06:12:25;122.18;;;115.85;;
1140;SDS011;559;48.628;8.924;2023-04-01T06:15:09;119.78;;;113.78;;
1140;SDS011;559;48.628;8.924;2023-04-01T06:17:58;121.45;;;115.45;;
1140;SDS011;559;48.628;8.924;2023-04-01T06:20:34;124.60;;;118.50;;
1140;SDS011;559;48.628;8.924;2023-04-01T06:23:15;119.15;;;113.45;;
1140;SDS011;559;48.628;8.924;2023-04-01T06:25:53;122.53;;;116.72;;
1140;SDS011;559;48.628;8.924;2023-04-01T06:28:45;124.53;;;118.65;;
1140;SDS011;559;48.628;8.924;2023-04-01T06:31:42;128.73;;;122.93;;
1140;SDS011;559;48.628;8.924;2023-04-01T06:34:26;134.05;;;127.95;;
1140;SDS011;559;48.628;8.924;2023-04-01T06:37:14;130.63;;;124.82;;
1140;SDS011;559;48.628;8.924;2023-04-01T06:40:00;128.82;;;122.90;;
1140;SDS011;559;48.628;8.924;2023-04-01T06:42:40;131.55;;;125.63;;
1140;SDS011;559;48.628;8.924;2023-04-01T06:45:15;125.50;;;119.70;;
1140;SDS011;559;48.628;8.924;2023-04-01T06:47:52;124.53;;;118.72;;
1140;SDS011;559;48.628;8.924;2023-04-01T06:50:28;120.75;;;114.85;;
1140;SDS011;559;48.628;8.924;2023-04-01T06:53:01;116.25;;;109.97;;
1140;SDS011;559;48.628;8.924;2023-04-01T06:55:32;119.65;;;113.65;;
1140;SDS011;559;48.628;8.924;2023-04-01T06:58:05;122.10;;;116.03;;
1140;SDS011;559;48.628;8.924;2023-04-01T07:00:37;122.50;;;116.07;;
1140;SDS011;559;48.628;8.924;2023-04-01T07:03:07;119.07;;;113.18;;
1140;SDS011;559;48.628;8.924;2023-04-01T07:05:40;116.35;;;110.35;;
1140;SDS011;559;48.628;8.924;2023-04-01T07:08:09;122.38;;;116.45;;
1140;SDS011;559;48.628;8.924;2023-04-01T07:10:43;123.60;;;117.60;;
1140;SDS011;559;48.628;8.924;2023-04-01T07:13:14;122.15;;;116.18;;
1140;SDS011;559;48.628;8.924;2023-04-01T07:15:46;121.13;;;115.20;;
1140;SDS011;559;48.628;8.924;2023-04-01T07:18:19;129.10;;;121.40;;
1140;SDS011;559;48.628;8.924;2023-04-01T07:20:48;124.82;;;118.22;;
1140;SDS011;559;48.628;8.924;2023-04-01T07:23:15;119.30;;;113.30;;
1140;SDS011;559;48.628;8.924;2023-04-01T07:25:47;118.28;;;112.38;;
1140;SDS011;559;48.628;8.924;2023-04-01T07:28:18;124.68;;;118.57;;
1140;SDS011;559;48.628;8.924;2023-04-01T07:30:51;120.60;;;114.60;;
1140;SDS011;559;48.628;8.924;2023-04-01T07:33:24;124.75;;;118.65;;
1140;SDS011;559;48.628;8.924;2023-04-01T07:35:55;124.22;;;118.22;;
1140;SDS011;559;48.628;8.924;2023-04-01T07:38:26;122.10;;;116.20;;
1140;SDS011;559;48.628;8.924;2023-04-01T07:40:59;122.57;;;116.47;;
1140;SDS011;559;48.628;8.924;2023-04-01T07:43:36;123.53;;;117.65;;
1140;SDS011;559;48.628;8.924;2023-04-01T07:46:12;120.63;;;114.72;;
1140;SDS011;559;48.628;8.924;2023-04-01T07:48:47;121.55;;;115.70;;
1140;SDS011;559;48.628;8.924;2023-04-01T07:51:20;119.65;;;113.75;;
1140;SDS011;559;48.628;8.924;2023-04-01T07:53:49;122.28;;;116.43;;
1140;SDS011;559;48.628;8.924;2023-04-01T07:56:23;121.57;;;115.68;;
1140;SDS011;559;48.628;8.924;2023-04-01T07:58:57;117.68;;;111.97;;
1140;SDS011;559;48.628;8.924;2023-04-01T08:01:28;126.13;;;119.93;;
1140;SDS011;559;48.628;8.924;2023-04-01T08:04:06;118.20;;;112.30;;
1140;SDS011;559;48.628;8.924;2023-04-01T08:06:42;121.50;;;115.20;;
1140;SDS011;559;48.628;8.924;2023-04-01T08:09:15;120.15;;;114.18;;
1140;SDS011;559;48.628;8.924;2023-04-01T08:11:51;126.22;;;120.07;;
1140;SDS011;559;48.628;8.924;2023-04-01T08:14:28;126.53;;;120.13;;
1140;SDS011;559;48.628;8.924;2023-04-01T08:17:00;120.47;;;114.28;;
1140;SDS011;559;48.628;8.924;2023-04-01T08:19:30;122.40;;;116.20;;
1140;SDS011;559;48.628;8.924;2023-04-01T08:22:03;124.95;;;118.40;;
1140;SDS011;559;48.628;8.924;2023-04-01T08:24:35;133.70;;;127.25;;
1140;SDS011;559;48.628;8.924;2023-04-01T08:27:06;127.43;;;121.07;;
1140;SDS011;559;48.628;8.924;2023-04-01T08:29:40;124.13;;;117.82;;
1140;SDS011;559;48.628;8.924;2023-04-01T08:32:08;129.32;;;122.95;;
1140;SDS011;559;48.628;8.924;2023-04-01T08:34:38;124.85;;;118.55;;
1140;SDS011;559;48.628;8.924;2023-04-01T08:37:07;126.07;;;119.88;;
1140;SDS011;559;48.628;8.924;2023-04-01T08:39:37;134.07;;;127.50;;
1140;SDS011;559;48.628;8.924;2023-04-01T08:42:18;131.93;;;125.45;;
1140;SDS011;559;48.628;8.924;2023-04-01T08:47:52;127.60;;;121.25;;
1140;SDS011;559;48.628;8.924;2023-04-01T08:50:40;126.25;;;119.75;;
1140;SDS011;559;48.628;8.924;2023-04-01T08:53:17;127.20;;;120.40;;
1140;SDS011;559;48.628;8.924;2023-04-01T08:55:51;128.90;;;122.40;;
1140;SDS011;559;48.628;8.924;2023-04-01T08:58:32;127.95;;;121.00;;
1140;SDS011;559;48.628;8.924;2023-04-01T09:01:24;125.15;;;118.85;;
1140;SDS011;559;48.628;8.924;2023-04-01T09:04:14;122.28;;;116.18;;
1140;SDS011;559;48.628;8.924;2023-04-01T09:06:57;121.05;;;114.85;;
1140;SDS011;559;48.628;8.924;2023-04-01T09:09:42;114.57;;;108.68;;
1140;SDS011;559;48.628;8.924;2023-04-01T09:12:25;117.28;;;111.38;;
1140;SDS011;559;48.628;8.924;2023-04-01T09:15:02;114.18;;;108.43;;
1140;SDS011;559;48.628;8.924;2023-04-01T09:17:51;114.75;;;108.88;;
1140;SDS011;559;48.628;8.924;2023-04-01T09:21:02;110.50;;;104.80;;
1140;SDS011;559;48.628;8.924;2023-04-01T09:23:41;112.90;;;107.10;;
1140;SDS011;559;48.628;8.924;2023-04-01T09:26:35;112.55;;;106.63;;
1140;SDS011;559;48.628;8.924;2023-04-01T09:29:12;113.22;;;107.43;;
1140;SDS011;559;48.628;8.924;2023-04-01T09:31:54;111.85;;;106.15;;
1140;SDS011;559;48.628;8.924;2023-04-01T09:34:53;113.10;;;107.40;;
1140;SDS011;559;48.628;8.924;2023-04-01T09:37:21;109.30;;;103.80;;
1140;SDS011;559;48.628;8.924;2023-04-01T09:42:45;107.57;;;102.03;;
1140;SDS011;559;48.628;8.924;2023-04-01T09:45:27;106.97;;;101.45;;
1140;SDS011;559;48.628;8.924;2023-04-01T09:48:12;110.85;;;105.35;;
1140;SDS011;559;48.628;8.924;2023-04-01T09:50:50;112.57;;;107.07;;
1140;SDS011;559;48.628;8.924;2023-04-01T09:53:29;112.90;;;107.40;;
1140;SDS011;559;48.628;8.924;2023-04-01T09:56:23;111.68;;;106.07;;
1140;SDS011;559;48.628;8.924;2023-04-01T09:59:24;116.78;;;111.18;;
1140;SDS011;559;48.628;8.924;2023-04-01T10:08:43;105.25;;;99.95;;
1140;SDS011;559;48.628;8.924;2023-04-01T10:11:41;103.18;;;97.88;;
1140;SDS011;559;48.628;8.924;2023-04-01T10:14:31;101.13;;;96.03;;
1140;SDS011;559;48.628;8.924;2023-04-01T10:17:37;100.53;;;95.43;;
1140;SDS011;559;48.628;8.924;2023-04-01T10:20:37;99.15;;;94.05;;
1140;SDS011;559;48.628;8.924;2023-04-01T10:26:28;96.95;;;92.15;;
1140;SDS011;559;48.628;8.924;2023-04-01T10:29:03;95.95;;;91.25;;
1140;SDS011;559;48.628;8.924;2023-04-01T10:32:02;99.15;;;94.18;;
1140;SDS011;559;48.628;8.924;2023-04-01T10:40:48;93.28;;;88.78;;
1140;SDS011;559;48.628;8.924;2023-04-01T10:43:35;89.90;;;85.60;;
1140;SDS011;559;48.628;8.924;2023-04-01T10:46:32;89.55;;;85.15;;
1140;SDS011;559;48.628;8.924;2023-04-01T10:49:47;94.07;;;89.68;;
1140;SDS011;559;48.628;8.924;2023-04-01T10:52:39;93.03;;;88.68;;
1140;SDS011;559;48.628;8.924;2023-04-01T10:55:22;91.10;;;86.80;;
1140;SDS011;559;48.628;8.924;2023-04-01T10:58:25;93.40;;;89.00;;
1140;SDS011;559;48.628;8.924;2023-04-01T11:01:07;93.18;;;88.78;;
1140;SDS011;559;48.628;8.924;2023-04-01T11:06:57;90.38;;;86.20;;
1140;SDS011;559;48.628;8.924;2023-04-01T11:16:05;90.10;;;85.90;;
1140;SDS011;559;48.628;8.924;2023-04-01T11:18:49;90.50;;;86.30;;
1140;SDS011;559;48.628;8.924;2023-04-01T11:24:35;84.35;;;80.55;;
1140;SDS011;559;48.628;8.924;2023-04-01T11:27:16;88.07;;;84.00;;
1140;SDS011;559;48.628;8.924;2023-04-01T11:29:58;84.03;;;80.13;;
1140;SDS011;559;48.628;8.924;2023-04-01T11:32:37;81.55;;;77.65;;
1140;SDS011;559;48.628;8.924;2023-04-01T11:35:15;79.18;;;75.57;;
1140;SDS011;559;48.628;8.924;2023-04-01T11:37:51;81.28;;;77.63;;
1140;SDS011;559;48.628;8.924;2023-04-01T11:40:25;80.47;;;76.88;;
1140;SDS011;559;48.628;8.924;2023-04-01T11:42:57;81.35;;;77.65;;
1140;SDS011;559;48.628;8.924;2023-04-01T11:45:32;86.50;;;82.60;;
1140;SDS011;559;48.628;8.924;2023-04-01T11:48:18;81.95;;;78.25;;
1140;SDS011;559;48.628;8.924;2023-04-01T11:50:54;84.57;;;80.78;;
1140;SDS011;559;48.628;8.924;2023-04-01T11:53:33;78.25;;;74.75;;
1140;SDS011;559;48.628;8.924;2023-04-01T11:56:10;81.53;;;77.93;;
1140;SDS011;559;48.628;8.924;2023-04-01T11:58:53;81.53;;;77.80;;
1140;SDS011;559;48.628;8.924;2023-04-01T12:01:29;82.65;;;78.95;;
1140;SDS011;559;48.628;8.924;2023-04-01T12:04:06;84.95;;;81.15;;
1140;SDS011;559;48.628;8.924;2023-04-01T12:06:50;83.88;;;80.00;;
1140;SDS011;559;48.628;8.924;2023-04-01T12:09:20;83.28;;;79.38;;
1140;SDS011;559;48.628;8.924;2023-04-01T12:11:51;87.28;;;83.30;;
1140;SDS011;559;48.628;8.924;2023-04-01T12:14:33;81.80;;;78.00;;
1140;SDS011;559;48.628;8.924;2023-04-01T12:17:06;85.63;;;81.35;;
1140;SDS011;559;48.628;8.924;2023-04-01T12:19:43;80.00;;;76.30;;
1140;SDS011;559;48.628;8.924;2023-04-01T12:22:19;82.30;;;78.60;;
1140;SDS011;559;48.628;8.924;2023-04-01T12:24:53;81.90;;;78.20;;
1140;SDS011;559;48.628;8.924;2023-04-01T12:27:40;82.45;;;78.75;;
1140;SDS011;559;48.628;8.924;2023-04-01T12:30:15;80.72;;;77.22;;
1140;SDS011;559;48.628;8.924;2023-04-01T12:32:50;78.55;;;74.85;;
1140;SDS011;559;48.628;8.924;2023-04-01T12:35:27;78.85;;;75.38;;
1140;SDS011;559;48.628;8.924;2023-04-01T12:38:04;76.45;;;73.07;;
1140;SDS011;559;48.628;8.924;2023-04-01T12:40:46;77.28;;;73.78;;
1140;SDS011;559;48.628;8.924;2023-04-01T12:43:23;78.68;;;75.45;;
1140;SDS011;559;48.628;8.924;2023-04-01T12:45:58;79.22;;;75.75;;
1140;SDS011;559;48.628;8.924;2023-04-01T12:48:51;81.40;;;77.80;;
1140;SDS011;559;48.628;8.924;2023-04-01T12:51:42;75.30;;;71.80;;
1140;SDS011;559;48.628;8.924;2023-04-01T12:57:48;69.93;;;67.03;;
1140;SDS011;559;48.628;8.924;2023-04-01T13:00:30;71.13;;;68.13;;
1140;SDS011;559;48.628;8.924;2023-04-01T13:03:05;68.63;;;65.82;;
1140;SDS011;559;48.628;8.924;2023-04-01T13:05:57;70.65;;;67.82;;
1140;SDS011;559;48.628;8.924;2023-04-01T13:08:50;71.25;;;68.25;;
1140;SDS011;559;48.628;8.924;2023-04-01T13:11:22;72.30;;;69.30;;
1140;SDS011;559;48.628;8.924;2023-04-01T13:16:59;72.55;;;69.65;;
1140;SDS011;559;48.628;8.924;2023-04-01T13:19:31;72.15;;;69.25;;
1140;SDS011;559;48.628;8.924;2023-04-01T13:22:04;74.43;;;71.32;;
1140;SDS011;559;48.628;8.924;2023-04-01T13:24:39;75.60;;;72.50;;
1140;SDS011;559;48.628;8.924;2023-04-01T13:27:09;71.05;;;68.25;;
1140;SDS011;559;48.628;8.924;2023-04-01T13:29:40;68.50;;;65.80;;
1140;SDS011;559;48.628;8.924;2023-04-01T13:32:16;69.57;;;66.78;;
1140;SDS011;559;48.628;8.924;2023-04-01T13:34:49;75.30;;;72.40;;
1140;SDS011;559;48.628;8.924;2023-04-01T13:37:24;77.63;;;74.53;;
1140;SDS011;559;48.628;8.924;2023-04-01T13:40:03;76.32;;;73.22;;
1140;SDS011;559;48.628;8.924;2023-04-01T13:42:42;78.03;;;74.93;;
1140;SDS011;559;48.628;8.924;2023-04-01T13:45:12;80.82;;;77.63;;
1140;SDS011;559;48.628;8.924;2023-04-01T13:51:01;82.45;;;79.05;;
1140;SDS011;559;48.628;8.924;2023-04-01T13:56:45;78.65;;;75.25;;
1140;SDS011;559;48.628;8.924;2023-04-01T13:59:29;78.60;;;75.15;;
1140;SDS011;559;48.628;8.924;2023-04-01T14:08:03;78.78;;;75.38;;
1140;SDS011;559;48.628;8.924;2023-04-01T14:10:36;77.10;;;73.75;;
1140;SDS011;559;48.628;8.924;2023-04-01T14:13:09;81.78;;;78.28;;
1140;SDS011;559;48.628;8.924;2023-04-01T14:15:48;76.50;;;73.30;;
1140;SDS011;559;48.628;8.924;2023-04-01T14:18:33;69.93;;;67.10;;
1140;SDS011;559;48.628;8.924;2023-04-01T14:21:08;69.38;;;66.68;;
1140;SDS011;559;48.628;8.924;2023-04-01T14:23:48;67.00;;;64.40;;
1140;SDS011;559;48.628;8.924;2023-04-01T14:29:32;73.30;;;70.40;;
1140;SDS011;559;48.628;8.924;2023-04-01T14:32:06;67.88;;;65.22;;
1140;SDS011;559;48.628;8.924;2023-04-01T14:34:39;69.10;;;66.50;;
1140;SDS011;559;48.628;8.924;2023-04-01T14:37:15;68.70;;;66.10;;
1140;SDS011;559;48.628;8.924;2023-04-01T14:39:59;68.13;;;65.53;;
1140;SDS011;559;48.628;8.924;2023-04-01T14:42:52;66.07;;;63.60;;
1140;SDS011;559;48.628;8.924;2023-04-01T14:48:30;68.50;;;65.80;;
1140;SDS011;559;48.628;8.924;2023-04-01T14:51:02;68.00;;;65.40;;
1140;SDS011;559;48.628;8.924;2023-04-01T14:53:31;68.45;;;65.75;;
1140;SDS011;559;48.628;8.924;2023-04-01T14:56:01;71.05;;;68.25;;
1140;SDS011;559;48.628;8.924;2023-04-01T14:58:38;71.57;;;68.70;;
1140;SDS011;559;48.628;8.924;2023-04-01T15:01:13;76.43;;;73.43;;
1140;SDS011;559;48.628;8.924;2023-04-01T15:03:48;69.68;;;66.97;;
1140;SDS011;559;48.628;8.924;2023-04-01T15:06:42;69.75;;;66.95;;
1140;SDS011;559;48.628;8.924;2023-04-01T15:09:17;68.25;;;65.65;;
1140;SDS011;559;48.628;8.924;2023-04-01T15:11:56;66.80;;;64.10;;
1140;SDS011;559;48.628;8.924;2023-04-01T15:17:33;68.28;;;65.28;;
1140;SDS011;559;48.628;8.924;2023-04-01T15:20:18;68.68;;;65.88;;
1140;SDS011;559;48.628;8.924;2023-04-01T15:22:56;69.13;;;66.40;;
1140;SDS011;559;48.628;8.924;2023-04-01T15:25:39;68.75;;;65.95;;
1140;SDS011;559;48.628;8.924;2023-04-01T15:28:13;71.75;;;68.85;;
1140;SDS011;559;48.628;8.924;2023-04-01T15:30:48;70.40;;;67.70;;
1140;SDS011;559;48.628;8.924;2023-04-01T15:33:24;69.95;;;67.25;;
1140;SDS011;559;48.628;8.924;2023-04-01T15:35:58;75.15;;;72.25;;
1140;SDS011;559;48.628;8.924;2023-04-01T15:38:32;76.78;;;73.78;;
1140;SDS011;559;48.628;8.924;2023-04-01T15:41:03;83.28;;;79.88;;
1140;SDS011;559;48.628;8.924;2023-04-01T15:43:39;88.75;;;85.05;;
1140;SDS011;559;48.628;8.924;2023-04-01T15:46:29;89.25;;;85.53;;
1140;SDS011;559;48.628;8.924;2023-04-01T15:49:05;94.95;;;90.97;;
1140;SDS011;559;48.628;8.924;2023-04-01T15:51:40;94.32;;;90.18;;
1140;SDS011;559;48.628;8.924;2023-04-01T15:54:25;93.63;;;89.47;;
1140;SDS011;559;48.628;8.924;2023-04-01T15:57:00;98.97;;;94.57;;
1140;SDS011;559;48.628;8.924;2023-04-01T15:59:47;103.07;;;98.43;;
1140;SDS011;559;48.628;8.924;2023-04-01T16:02:21;98.90;;;94.30;;
1140;SDS011;559;48.628;8.924;2023-04-01T16:04:54;95.25;;;90.88;;
1140;SDS011;559;48.628;8.924;2023-04-01T16:07:42;89.53;;;85.32;;
1140;SDS011;559;48.628;8.924;2023-04-01T16:10:23;87.80;;;83.70;;
1140;SDS011;559;48.628;8.924;2023-04-01T16:13:03;85.18;;;81.32;;
1140;SDS011;559;48.628;8.924;2023-04-01T16:15:38;80.25;;;76.65;;
1140;SDS011;559;48.628;8.924;2023-04-01T16:18:28;76.93;;;73.50;;
1140;SDS011;559;48.628;8.924;2023-04-01T16:21:05;71.63;;;68.53;;
1140;SDS011;559;48.628;8.924;2023-04-01T16:23:35;65.47;;;62.75;;
1140;SDS011;559;48.628;8.924;2023-04-01T16:26:05;59.58;;;57.30;;
1140;SDS011;559;48.628;8.924;2023-04-01T16:28:34;54.13;;;52.28;;
1140;SDS011;559;48.628;8.924;2023-04-01T16:31:04;51.80;;;50.15;;